Time;durP1;ratioP1;P1;durP2;ratioP2;P2;SDS_P1;SDS_P2;PMS_P1;PMS_P2;Temp;Humidity;BMP_temperature;BMP_pressure;BME280_temperature;BME280_humidity;BME280_pressure;Samples;Min_cycle;Max_cycle;Signal;HPM_P1;HPM_P2
2022/11/25 00:02:16;;;;;;;43.05;11.27;;;7.10;99.90;;;;;;5066170;28;20086;-71
2022/11/25 00:04:41;;;;;;;33.38;10.32;;;7.00;99.90;;;;;;5067345;28;20131;-71
2022/11/25 00:07:07;;;;;;;30.80;11.13;;;7.00;99.90;;;;;;5067753;28;20056;-71
2022/11/25 00:09:33;;;;;;;40.42;12.20;;;7.00;99.90;;;;;;5066732;28;20135;-71
2022/11/25 00:11:58;;;;;;;28.95;10.80;;;7.00;99.90;;;;;;5058520;28;20057;-71
2022/11/25 00:14:24;;;;;;;22.67;10.05;;;7.00;99.90;;;;;;5063645;28;20689;-70
2022/11/25 00:16:49;;;;;;;31.88;11.45;;;7.00;99.90;;;;;;5065853;28;20072;-70
2022/11/25 00:19:16;;;;;;;28.25;10.55;;;7.00;99.90;;;;;;5067113;28;20719;-70
2022/11/25 00:21:41;;;;;;;24.52;10.25;;;7.00;99.90;;;;;;5064818;28;20505;-70
2022/11/25 00:24:07;;;;;;;34.30;10.82;;;7.00;99.90;;;;;;5066229;28;20036;-70
2022/11/25 00:26:34;;;;;;;22.52;10.23;;;7.10;99.90;;;;;;5066712;28;20047;-70
2022/11/25 00:29:05;;;;;;;21.27;11.55;;;7.10;99.90;;;;;;5063460;28;20067;-70
2022/11/25 00:31:34;;;;;;;32.28;10.15;;;7.00;99.90;;;;;;5065553;28;20099;-70
2022/11/25 00:33:59;;;;;;;47.10;11.43;;;7.00;99.90;;;;;;5066271;28;20052;-71
2022/11/25 00:36:28;;;;;;;31.45;11.25;;;7.00;99.90;;;;;;5073958;28;20048;-70
2022/11/25 00:38:56;;;;;;;26.90;10.65;;;7.10;99.90;;;;;;5064792;28;20487;-70
2022/11/25 00:46:53;;;;;;;32.47;10.80;;;7.10;99.90;;;;;;5068890;28;20067;-71
2022/11/25 00:49:18;;;;;;;35.00;9.80;;;7.10;99.90;;;;;;5068648;28;20401;-71
2022/11/25 00:51:44;;;;;;;37.35;10.18;;;7.10;99.90;;;;;;5069287;28;20048;-70
2022/11/25 00:54:10;;;;;;;21.13;9.52;;;7.20;99.90;;;;;;5069960;28;20044;-70
2022/11/25 00:56:35;;;;;;;23.92;10.32;;;7.20;99.90;;;;;;5069216;28;20045;-70
2022/11/25 00:59:01;;;;;;;33.67;9.98;;;7.10;99.90;;;;;;5069264;28;20084;-70
2022/11/25 01:01:27;;;;;;;29.13;9.55;;;7.10;99.90;;;;;;5065781;28;20040;-70
2022/11/25 01:03:53;;;;;;;25.73;9.80;;;7.20;99.90;;;;;;5068082;28;20049;-70
2022/11/25 01:06:18;;;;;;;40.20;10.80;;;7.10;99.90;;;;;;5069944;28;20074;-70
2022/11/25 01:08:44;;;;;;;29.80;10.30;;;7.10;99.90;;;;;;5069535;28;20040;-70
2022/11/25 01:11:12;;;;;;;22.17;9.25;;;7.10;99.90;;;;;;5068322;28;20586;-70
2022/11/25 01:13:37;;;;;;;47.17;11.20;;;7.10;99.90;;;;;;5068901;28;20174;-70
2022/11/25 01:16:05;;;;;;;33.00;10.35;;;7.10;99.90;;;;;;5066220;28;20131;-70
2022/11/25 01:18:33;;;;;;;30.25;11.30;;;7.10;99.90;;;;;;5065075;28;20267;-70
2022/11/25 01:21:07;;;;;;;30.53;9.83;;;7.10;99.90;;;;;;5066335;28;20071;-70
2022/11/25 01:23:34;;;;;;;39.10;11.23;;;7.10;99.90;;;;;;5058268;28;20052;-70
2022/11/25 01:26:04;;;;;;;31.40;9.88;;;7.10;99.90;;;;;;5061813;28;20112;-70
2022/11/25 01:28:31;;;;;;;29.00;10.35;;;7.10;99.90;;;;;;5067012;28;20169;-70
2022/11/25 01:31:01;;;;;;;35.33;10.23;;;7.10;99.90;;;;;;5069056;28;20044;-70
2022/11/25 01:33:27;;;;;;;32.67;9.57;;;7.10;99.90;;;;;;5068426;28;20460;-70
2022/11/25 01:35:53;;;;;;;25.23;9.73;;;7.10;99.90;;;;;;5063770;28;20502;-70
2022/11/25 01:38:19;;;;;;;30.05;9.82;;;7.10;99.90;;;;;;5069051;28;20055;-70
2022/11/25 01:40:44;;;;;;;30.15;9.80;;;7.10;99.90;;;;;;5066468;28;20043;-70
2022/11/25 01:43:13;;;;;;;19.13;8.75;;;7.10;99.90;;;;;;5069414;28;20878;-70
2022/11/25 01:45:39;;;;;;;22.88;9.27;;;7.10;99.90;;;;;;5068645;28;20459;-70
2022/11/25 01:48:27;;;;;;;25.60;11.02;;;7.10;99.90;;;;;;5065107;28;20041;-70
2022/11/25 01:50:53;;;;;;;31.40;10.48;;;7.10;99.90;;;;;;5065245;28;20888;-70
2022/11/25 01:53:20;;;;;;;24.33;8.90;;;7.10;99.90;;;;;;5062643;28;20501;-70
2022/11/25 01:55:52;;;;;;;26.98;10.35;;;7.10;99.90;;;;;;5079094;28;20041;-70
2022/11/25 01:58:25;;;;;;;37.10;11.52;;;7.10;99.90;;;;;;5069092;28;20043;-70
2022/11/25 02:00:51;;;;;;;26.42;8.90;;;7.10;99.90;;;;;;5067890;28;20052;-70
2022/11/25 02:03:28;;;;;;;28.35;9.35;;;7.10;99.90;;;;;;5069329;28;20043;-70
2022/11/25 02:06:12;;;;;;;16.83;8.45;;;7.10;99.90;;;;;;5068454;28;20041;-70
2022/11/25 02:08:41;;;;;;;28.10;9.57;;;7.10;99.90;;;;;;5063825;28;20127;-70
2022/11/25 02:11:06;;;;;;;32.38;9.90;;;7.10;99.90;;;;;;5065566;28;20048;-70
2022/11/25 02:13:32;;;;;;;34.22;9.85;;;7.10;99.90;;;;;;5068843;28;20499;-70
2022/11/25 02:15:58;;;;;;;40.38;10.35;;;7.10;99.90;;;;;;5068903;28;20502;-70
2022/11/25 02:18:25;;;;;;;26.75;9.90;;;7.20;99.90;;;;;;5068896;28;20052;-70
2022/11/25 02:20:51;;;;;;;37.50;10.45;;;7.20;99.90;;;;;;5067876;28;20055;-70
2022/11/25 02:23:36;;;;;;;26.45;8.43;;;7.20;99.90;;;;;;5066621;28;20080;-69
2022/11/25 02:26:03;;;;;;;29.63;9.43;;;7.20;99.90;;;;;;5065665;28;20063;-69
2022/11/25 02:28:31;;;;;;;36.85;10.27;;;7.20;99.90;;;;;;5074922;28;20052;-70
2022/11/25 02:30:57;;;;;;;27.25;9.90;;;7.20;99.90;;;;;;5066924;28;20105;-69
2022/11/25 02:33:25;;;;;;;35.33;9.50;;;7.20;99.90;;;;;;5065796;28;20063;-69
2022/11/25 02:36:05;;;;;;;34.97;10.77;;;7.20;99.90;;;;;;5067451;28;20091;-70
2022/11/25 02:38:49;;;;;;;30.98;10.27;;;7.20;99.90;;;;;;5055306;28;20421;-70
2022/11/25 02:41:24;;;;;;;29.90;10.10;;;7.20;99.90;;;;;;5064230;28;20047;-70
2022/11/25 02:43:49;;;;;;;28.15;10.70;;;7.20;99.90;;;;;;5065336;28;20771;-70
2022/11/25 02:46:22;;;;;;;37.97;11.60;;;7.30;99.90;;;;;;5057554;28;20084;-70
2022/11/25 02:48:50;;;;;;;28.55;9.98;;;7.20;99.90;;;;;;5063786;28;20051;-70
2022/11/25 02:51:17;;;;;;;35.35;11.48;;;7.20;99.90;;;;;;5068306;28;20641;-70
2022/11/25 02:53:43;;;;;;;31.23;9.90;;;7.20;99.90;;;;;;5067399;28;20048;-70
2022/11/25 02:56:10;;;;;;;28.40;11.40;;;7.20;99.90;;;;;;5062575;28;20056;-70
2022/11/25 02:58:36;;;;;;;29.50;10.57;;;7.20;99.90;;;;;;5066317;28;20080;-70
2022/11/25 03:01:03;;;;;;;30.77;9.80;;;7.20;99.90;;;;;;5066889;28;20080;-70
2022/11/25 03:03:28;;;;;;;37.25;11.07;;;7.20;99.90;;;;;;5066038;28;20048;-70
2022/11/25 03:05:54;;;;;;;27.75;11.15;;;7.20;99.90;;;;;;5066469;28;20040;-70
2022/11/25 03:08:19;;;;;;;40.33;11.45;;;7.20;99.90;;;;;;5065477;28;20045;-70
2022/11/25 03:10:45;;;;;;;33.75;13.10;;;7.20;99.90;;;;;;5066526;28;20044;-70
2022/11/25 03:13:12;;;;;;;33.40;10.38;;;7.30;99.90;;;;;;5061018;28;20669;-70
2022/11/25 03:15:38;;;;;;;35.08;11.75;;;7.20;99.90;;;;;;5066207;28;20169;-70
2022/11/25 03:18:04;;;;;;;28.45;12.25;;;7.20;99.90;;;;;;5066020;28;20061;-70
2022/11/25 03:20:30;;;;;;;23.00;10.50;;;7.30;99.90;;;;;;5066424;28;20056;-70
2022/11/25 03:22:56;;;;;;;37.47;12.32;;;7.30;99.90;;;;;;5066962;28;20159;-70
2022/11/25 03:25:23;;;;;;;26.40;11.85;;;7.30;99.90;;;;;;5056423;28;20159;-70
2022/11/25 03:27:49;;;;;;;27.50;11.73;;;7.30;99.90;;;;;;5061016;28;20089;-70
2022/11/25 03:30:18;;;;;;;32.95;10.98;;;7.30;99.90;;;;;;5071609;28;20084;-71
2022/11/25 03:32:44;;;;;;;27.85;10.88;;;7.30;99.90;;;;;;5066283;28;20044;-71
2022/11/25 03:35:11;;;;;;;29.27;12.38;;;7.30;99.90;;;;;;5069225;28;20127;-70
2022/11/25 03:37:37;;;;;;;27.15;10.38;;;7.30;99.90;;;;;;5073916;28;20047;-70
2022/11/25 03:40:04;;;;;;;29.83;10.35;;;7.30;99.90;;;;;;5053564;28;20036;-70
2022/11/25 03:42:30;;;;;;;37.75;11.75;;;7.30;99.90;;;;;;5062504;28;20043;-71
2022/11/25 03:44:55;;;;;;;20.65;11.38;;;7.40;99.90;;;;;;5070266;28;20045;-71
2022/11/25 03:47:21;;;;;;;41.53;12.52;;;7.30;99.90;;;;;;5068094;28;20044;-70
2022/11/25 03:49:47;;;;;;;41.75;11.45;;;7.40;99.90;;;;;;5076240;28;20052;-70
2022/11/25 03:52:13;;;;;;;26.10;13.25;;;7.40;99.90;;;;;;5067858;28;20040;-70
2022/11/25 03:54:38;;;;;;;40.63;12.20;;;7.40;99.90;;;;;;5077962;28;20083;-70
2022/11/25 03:57:04;;;;;;;33.13;12.40;;;7.40;99.90;;;;;;5067258;28;20493;-71
2022/11/25 03:59:30;;;;;;;30.23;12.05;;;7.40;99.90;;;;;;5075787;28;20487;-71
2022/11/25 04:01:55;;;;;;;33.92;11.70;;;7.40;99.90;;;;;;5062117;28;20102;-71
2022/11/25 04:04:21;;;;;;;31.45;12.77;;;7.40;99.90;;;;;;5051910;28;20055;-70
2022/11/25 04:06:47;;;;;;;29.05;12.43;;;7.40;99.90;;;;;;5069460;28;20056;-70
2022/11/25 04:09:13;;;;;;;36.03;12.98;;;7.40;99.90;;;;;;5063319;28;20515;-70
2022/11/25 04:14:23;;;;;;;40.55;13.32;;;7.40;99.90;;;;;;5067940;28;20048;-70
2022/11/25 04:16:48;;;;;;;32.75;12.95;;;7.40;99.90;;;;;;5061340;28;20645;-70
2022/11/25 04:19:14;;;;;;;33.28;13.07;;;7.40;99.90;;;;;;5064297;28;20322;-70
2022/11/25 04:21:40;;;;;;;27.65;11.52;;;7.40;99.90;;;;;;5082176;28;20051;-70
2022/11/25 04:24:06;;;;;;;38.40;13.50;;;7.40;99.90;;;;;;5070951;28;20595;-70
2022/11/25 04:26:31;;;;;;;34.15;12.82;;;7.40;99.90;;;;;;5052357;28;20110;-70
2022/11/25 04:28:57;;;;;;;30.05;11.48;;;7.40;99.90;;;;;;5070621;28;20061;-70
2022/11/25 04:31:23;;;;;;;41.72;12.82;;;7.40;99.90;;;;;;5071198;28;20055;-70
2022/11/25 04:33:48;;;;;;;42.28;13.20;;;7.40;99.90;;;;;;5069743;28;20037;-70
2022/11/25 04:36:14;;;;;;;33.55;12.63;;;7.40;99.90;;;;;;5067472;28;20091;-70
2022/11/25 04:38:40;;;;;;;33.90;13.23;;;7.40;99.90;;;;;;5070274;28;20051;-70
2022/11/25 04:41:05;;;;;;;33.00;13.82;;;7.40;99.90;;;;;;5070596;28;20167;-70
2022/11/25 04:43:31;;;;;;;31.67;12.65;;;7.40;99.90;;;;;;5069204;28;20501;-70
2022/11/25 04:45:57;;;;;;;26.55;12.38;;;7.40;99.90;;;;;;5069019;28;20045;-70
2022/11/25 04:48:24;;;;;;;46.03;14.65;;;7.40;99.90;;;;;;5084189;28;20152;-70
2022/11/25 04:50:49;;;;;;;43.85;13.30;;;7.40;99.90;;;;;;5066137;28;20045;-70
2022/11/25 04:53:15;;;;;;;38.83;13.13;;;7.40;99.90;;;;;;5059593;28;20054;-70
2022/11/25 04:55:41;;;;;;;38.55;14.07;;;7.50;99.90;;;;;;5072940;28;20485;-70
2022/11/25 04:58:08;;;;;;;35.70;14.50;;;7.40;99.90;;;;;;5071063;28;20052;-70
2022/11/25 05:00:33;;;;;;;37.10;13.30;;;7.50;99.90;;;;;;5079787;28;20052;-70
2022/11/25 05:02:59;;;;;;;33.75;13.40;;;7.50;99.90;;;;;;5081973;28;20047;-70
2022/11/25 05:05:24;;;;;;;32.20;12.52;;;7.50;99.90;;;;;;5069653;28;20106;-70
2022/11/25 05:07:50;;;;;;;30.85;13.85;;;7.50;99.90;;;;;;5067228;28;20067;-70
2022/11/25 05:10:16;;;;;;;48.78;14.15;;;7.50;99.90;;;;;;5070547;28;20482;-70
2022/11/25 05:12:41;;;;;;;42.55;15.70;;;7.50;99.90;;;;;;5054633;28;20044;-70
2022/11/25 05:15:07;;;;;;;44.10;13.77;;;7.50;99.90;;;;;;5080251;28;20044;-70
2022/11/25 05:17:33;;;;;;;30.25;14.73;;;7.50;99.90;;;;;;5084460;28;20048;-70
2022/11/25 05:19:59;;;;;;;30.17;14.63;;;7.50;99.90;;;;;;5071418;28;20036;-70
2022/11/25 05:22:28;;;;;;;37.30;16.33;;;7.50;99.90;;;;;;5052384;28;20127;-70
2022/11/25 05:24:53;;;;;;;37.63;14.63;;;7.50;99.90;;;;;;5075868;28;20048;-70
2022/11/25 05:27:20;;;;;;;38.92;14.88;;;7.50;99.90;;;;;;5071734;28;20041;-70
2022/11/25 05:29:45;;;;;;;37.35;13.90;;;7.50;99.90;;;;;;5069651;28;20519;-70
2022/11/25 05:32:11;;;;;;;44.40;17.60;;;7.60;99.90;;;;;;5069479;28;20044;-70
2022/11/25 05:34:38;;;;;;;42.25;13.90;;;7.60;99.90;;;;;;5078538;28;20045;-70
2022/11/25 05:37:04;;;;;;;33.75;14.43;;;7.60;99.90;;;;;;5076795;28;20047;-72
2022/11/25 05:39:30;;;;;;;34.70;13.88;;;7.60;99.90;;;;;;5074763;28;20106;-71
2022/11/25 05:41:57;;;;;;;40.75;14.85;;;7.60;99.90;;;;;;5076153;28;20037;-70
2022/11/25 05:44:23;;;;;;;37.83;14.70;;;7.60;99.90;;;;;;5049596;28;20056;-70
2022/11/25 05:46:49;;;;;;;50.83;16.85;;;7.60;99.90;;;;;;5061567;28;20044;-71
2022/11/25 05:49:16;;;;;;;31.92;15.00;;;7.60;99.90;;;;;;5083304;28;20417;-70
2022/11/25 05:51:44;;;;;;;43.00;15.00;;;7.60;99.90;;;;;;5069639;28;20105;-71
2022/11/25 05:54:09;;;;;;;31.98;14.73;;;7.60;99.90;;;;;;5080452;28;20303;-71
2022/11/25 05:56:35;;;;;;;35.75;16.30;;;7.60;99.90;;;;;;5065633;28;20105;-71
2022/11/25 05:59:01;;;;;;;49.80;15.85;;;7.60;99.90;;;;;;5063966;28;20118;-71
2022/11/25 06:01:27;;;;;;;39.53;16.42;;;7.70;99.90;;;;;;5065698;28;20052;-71
2022/11/25 06:03:53;;;;;;;36.05;14.73;;;7.60;99.90;;;;;;5067972;28;20629;-71
2022/11/25 06:06:19;;;;;;;33.83;15.38;;;7.70;99.90;;;;;;5075888;28;20052;-71
2022/11/25 06:08:45;;;;;;;48.88;17.33;;;7.70;99.90;;;;;;5081336;28;20058;-71
2022/11/25 06:11:16;;;;;;;29.27;16.38;;;7.80;99.90;;;;;;5073179;28;20032;-71
2022/11/25 06:13:45;;;;;;;49.55;18.35;;;7.80;99.90;;;;;;5063304;28;20045;-71
2022/11/25 06:16:17;;;;;;;42.00;18.52;;;7.80;99.90;;;;;;5066644;28;20141;-71
2022/11/25 06:18:43;;;;;;;55.60;18.88;;;7.80;99.90;;;;;;5073796;28;20869;-71
2022/11/25 06:21:10;;;;;;;35.80;16.77;;;7.80;99.90;;;;;;5066740;28;20048;-70
2022/11/25 06:23:36;;;;;;;39.28;17.58;;;7.80;99.90;;;;;;5062667;28;20120;-70
2022/11/25 06:26:15;;;;;;;42.67;16.50;;;7.80;99.90;;;;;;5069521;28;20052;-71
2022/11/25 06:28:40;;;;;;;39.08;16.45;;;7.90;99.90;;;;;;5076541;28;20064;-70
2022/11/25 06:31:12;;;;;;;46.22;18.23;;;7.90;99.90;;;;;;5064844;28;20052;-70
2022/11/25 06:33:38;;;;;;;34.45;15.75;;;7.90;99.90;;;;;;5068425;28;20429;-71
2022/11/25 06:36:07;;;;;;;47.33;17.90;;;7.90;99.90;;;;;;5066133;28;20144;-71
2022/11/25 06:38:33;;;;;;;38.10;17.92;;;7.90;99.90;;;;;;5066332;28;20040;-71
2022/11/25 06:41:01;;;;;;;35.05;14.98;;;7.90;99.90;;;;;;5066107;28;20044;-71
2022/11/25 06:43:26;;;;;;;37.63;15.85;;;7.90;99.90;;;;;;5068005;28;20066;-71
2022/11/25 06:45:52;;;;;;;30.48;15.07;;;7.90;99.90;;;;;;5062339;28;20050;-71
2022/11/25 06:48:17;;;;;;;41.90;16.75;;;7.90;99.90;;;;;;5067061;28;20052;-71
2022/11/25 06:50:43;;;;;;;34.97;17.17;;;7.90;99.90;;;;;;5067799;28;20040;-71
2022/11/25 06:53:09;;;;;;;35.35;15.88;;;7.90;99.90;;;;;;5061609;28;20049;-71
2022/11/25 06:55:34;;;;;;;36.85;14.75;;;7.90;99.90;;;;;;5066731;28;20056;-70
2022/11/25 06:58:00;;;;;;;33.85;15.38;;;7.90;99.90;;;;;;5066601;28;20568;-71
2022/11/25 07:00:25;;;;;;;31.00;16.17;;;7.90;99.90;;;;;;5066552;28;20094;-70
2022/11/25 07:02:51;;;;;;;36.47;15.02;;;7.90;99.90;;;;;;5060996;28;20052;-71
2022/11/25 07:05:17;;;;;;;47.92;16.80;;;7.90;99.90;;;;;;5065038;28;20386;-71
2022/11/25 07:07:42;;;;;;;35.17;15.27;;;7.90;99.90;;;;;;5067737;28;20083;-71
2022/11/25 07:10:08;;;;;;;37.58;17.23;;;7.90;99.90;;;;;;5069653;28;20036;-70
2022/11/25 07:12:34;;;;;;;34.42;13.88;;;7.90;99.90;;;;;;5062032;28;20428;-70
2022/11/25 07:14:59;;;;;;;42.97;16.75;;;8.00;99.90;;;;;;5057033;28;20071;-71
2022/11/25 07:17:25;;;;;;;30.33;15.15;;;7.90;99.90;;;;;;5066957;28;20040;-71
2022/11/25 07:19:51;;;;;;;32.50;14.50;;;7.90;99.90;;;;;;5067326;28;20056;-70
2022/11/25 07:22:16;;;;;;;34.35;15.35;;;7.90;99.90;;;;;;5060007;28;20047;-71
2022/11/25 07:24:42;;;;;;;37.83;15.10;;;8.00;99.90;;;;;;5066104;28;20135;-71
2022/11/25 07:27:08;;;;;;;38.90;13.45;;;8.00;99.90;;;;;;5066429;28;20127;-71
2022/11/25 07:29:34;;;;;;;30.55;13.68;;;8.00;99.90;;;;;;5065376;28;20502;-70
2022/11/25 07:32:00;;;;;;;40.63;13.30;;;8.00;99.90;;;;;;5059847;28;20142;-71
2022/11/25 07:34:26;;;;;;;26.85;14.77;;;7.90;99.90;;;;;;5062841;28;20488;-71
2022/11/25 07:36:52;;;;;;;32.15;13.02;;;8.00;99.90;;;;;;5067359;28;20114;-71
2022/11/25 07:39:20;;;;;;;32.35;13.02;;;8.00;99.90;;;;;;5066402;28;20466;-71
2022/11/25 07:41:48;;;;;;;31.00;12.95;;;7.90;99.90;;;;;;5065732;28;20055;-71
2022/11/25 07:44:14;;;;;;;;;;;8.00;99.90;;;;;;5067908;28;20044;-71
2022/11/25 07:46:42;;;;;;;31.98;11.80;;;7.90;99.90;;;;;;5059399;28;19924;-71
2022/11/25 07:49:13;;;;;;;32.35;13.23;;;7.90;99.90;;;;;;5065616;28;20133;-71
2022/11/25 07:51:43;;;;;;;33.90;13.13;;;7.90;99.90;;;;;;5085127;28;20126;-71
2022/11/25 07:54:10;;;;;;;35.60;11.75;;;7.80;99.90;;;;;;5083462;28;20051;-71
2022/11/25 07:56:38;;;;;;;20.75;10.85;;;7.80;99.90;;;;;;5077560;28;20059;-72
2022/11/25 07:59:05;;;;;;;34.67;12.00;;;7.80;99.90;;;;;;5068683;28;20487;-71
2022/11/25 08:01:31;;;;;;;32.40;11.30;;;7.80;99.90;;;;;;5085281;28;20051;-72
2022/11/25 08:03:57;;;;;;;31.63;11.48;;;7.70;99.90;;;;;;5077289;28;20505;-72
2022/11/25 08:06:27;;;;;;;24.48;11.07;;;7.70;99.90;;;;;;5085614;28;20063;-72
2022/11/25 08:08:55;;;;;;;39.30;12.13;;;7.70;99.90;;;;;;5081601;28;20062;-72
2022/11/25 08:11:27;;;;;;;24.98;9.63;;;7.70;99.90;;;;;;5073784;28;20037;-72
2022/11/25 08:13:53;;;;;;;21.40;10.30;;;7.70;99.90;;;;;;5077651;28;20078;-72
2022/11/25 08:16:21;;;;;;;29.77;11.80;;;7.60;99.90;;;;;;5071721;28;20045;-72
2022/11/25 08:18:47;;;;;;;31.90;11.25;;;7.60;99.90;;;;;;5080132;28;20461;-72
2022/11/25 08:21:14;;;;;;;31.92;10.90;;;7.60;99.90;;;;;;5070300;28;20152;-72
2022/11/25 08:23:47;;;;;;;27.40;12.65;;;7.60;99.90;;;;;;5068723;28;20099;-72
2022/11/25 08:26:26;;;;;;;30.48;12.02;;;7.60;99.90;;;;;;5068534;28;20128;-72
2022/11/25 08:28:52;;;;;;;23.38;12.02;;;7.60;99.90;;;;;;5068393;28;20061;-72
2022/11/25 08:31:27;;;;;;;25.35;10.65;;;7.60;99.90;;;;;;5069973;28;20124;-72
2022/11/25 08:33:54;;;;;;;25.52;10.93;;;7.60;99.90;;;;;;5086954;28;20044;-72
2022/11/25 08:36:22;;;;;;;28.77;11.80;;;7.60;99.90;;;;;;5083828;28;20060;-72
2022/11/25 08:38:50;;;;;;;25.48;10.80;;;7.60;99.90;;;;;;5067025;28;20048;-72
2022/11/25 08:41:25;;;;;;;28.42;12.65;;;7.60;99.90;;;;;;5069270;28;20040;-72
2022/11/25 08:43:52;;;;;;;23.40;11.50;;;7.60;99.90;;;;;;5066745;28;20055;-72
2022/11/25 08:46:20;;;;;;;30.15;12.45;;;7.60;99.90;;;;;;5072175;28;20055;-72
2022/11/25 08:48:46;;;;;;;27.67;12.05;;;7.60;99.90;;;;;;5067757;28;20044;-72
2022/11/25 08:51:14;;;;;;;45.92;13.55;;;7.60;99.90;;;;;;5068776;28;20569;-72
2022/11/25 08:53:41;;;;;;;;;;;7.70;99.90;;;;;;5071079;28;20041;-72
2022/11/25 08:56:07;;;;;;;34.35;12.68;;;7.70;99.90;;;;;;5060140;28;20468;-72
2022/11/25 08:58:33;;;;;;;25.90;12.30;;;7.70;99.90;;;;;;5064493;28;20052;-72
2022/11/25 09:01:00;;;;;;;37.38;13.30;;;7.70;99.90;;;;;;5076876;28;20198;-72
2022/11/25 09:03:26;;;;;;;35.38;12.68;;;7.70;99.90;;;;;;5076402;28;20094;-72
2022/11/25 09:05:52;;;;;;;24.58;12.27;;;7.70;99.90;;;;;;5069578;28;20052;-71
2022/11/25 09:08:19;;;;;;;47.80;16.58;;;7.80;99.90;;;;;;5071812;28;20083;-72
2022/11/25 09:10:44;;;;;;;26.25;11.80;;;7.80;99.90;;;;;;5065463;28;20045;-72
2022/11/25 09:13:10;;;;;;;30.67;13.88;;;7.80;99.90;;;;;;5064773;28;20082;-72
2022/11/25 09:15:37;;;;;;;27.95;13.55;;;7.90;99.90;;;;;;5071729;28;20508;-72
2022/11/25 09:18:05;;;;;;;24.73;11.95;;;7.90;99.90;;;;;;5056503;28;20493;-72
2022/11/25 09:20:32;;;;;;;26.65;12.30;;;8.00;99.90;;;;;;5066464;28;20055;-72
2022/11/25 09:22:59;;;;;;;32.35;13.30;;;8.10;99.90;;;;;;5078801;28;20123;-72
2022/11/25 09:25:26;;;;;;;28.25;13.60;;;8.10;99.90;;;;;;5065962;28;20127;-71
2022/11/25 09:27:52;;;;;;;31.83;14.38;;;8.20;99.90;;;;;;5062952;28;20061;-72
2022/11/25 09:30:17;;;;;;;26.60;12.73;;;8.20;99.90;;;;;;5059527;28;20057;-71
2022/11/25 09:32:47;;;;;;;29.00;14.02;;;8.30;99.90;;;;;;5069067;28;20924;-72
2022/11/25 09:35:12;;;;;;;34.42;14.93;;;8.30;99.90;;;;;;5070930;28;20162;-72
2022/11/25 09:37:38;;;;;;;27.42;13.52;;;8.40;99.90;;;;;;5074844;28;20040;-72
2022/11/25 09:40:06;;;;;;;25.85;12.77;;;8.40;99.90;;;;;;5073356;28;20059;-72
2022/11/25 09:48:58;;;;;;;33.22;12.30;;;8.70;99.90;;;;;;5067811;28;20053;-72
2022/11/25 09:51:40;;;;;;;32.45;13.25;;;8.70;99.90;;;;;;5070240;28;20068;-72
2022/11/25 09:54:17;;;;;;;29.30;13.05;;;8.80;99.90;;;;;;5070815;28;20040;-72
2022/11/25 09:57:01;;;;;;;24.98;13.27;;;8.90;99.90;;;;;;5071801;28;20412;-73
2022/11/25 09:59:35;;;;;;;20.73;11.63;;;8.90;99.90;;;;;;5066025;28;20048;-73
2022/11/25 10:02:11;;;;;;;31.92;12.85;;;9.00;99.90;;;;;;5067272;28;20052;-73
2022/11/25 10:04:48;;;;;;;25.27;12.85;;;9.10;99.90;;;;;;5063215;28;20127;-72
2022/11/25 10:07:45;;;;;;;29.67;14.30;;;9.20;99.90;;;;;;5075185;28;20063;-72
2022/11/25 10:10:22;;;;;;;21.08;11.55;;;9.20;99.90;;;;;;5066368;28;20059;-72
2022/11/25 10:12:49;;;;;;;23.27;11.15;;;9.30;99.90;;;;;;5069704;28;20053;-72
2022/11/25 10:15:29;;;;;;;25.02;11.98;;;9.40;99.90;;;;;;5077714;28;20055;-72
2022/11/25 10:18:03;;;;;;;24.20;12.57;;;9.40;99.90;;;;;;5076486;28;20056;-72
2022/11/25 10:20:34;;;;;;;23.38;11.35;;;9.50;99.90;;;;;;5075082;28;20053;-73
2022/11/25 10:23:09;;;;;;;21.48;12.35;;;9.50;99.90;;;;;;5057485;28;20079;-73
2022/11/25 10:25:47;;;;;;;16.67;10.00;;;9.60;99.90;;;;;;5076665;28;20086;-73
2022/11/25 10:28:19;;;;;;;21.95;11.57;;;9.70;99.90;;;;;;5064460;28;20052;-72
2022/11/25 10:30:57;;;;;;;24.98;10.38;;;9.80;99.90;;;;;;5056199;28;20088;-73
2022/11/25 10:33:42;;;;;;;25.85;11.52;;;9.90;99.90;;;;;;5061785;28;20076;-73
2022/11/25 10:36:18;;;;;;;19.70;11.20;;;9.90;99.90;;;;;;5063509;28;20129;-74
2022/11/25 10:39:11;;;;;;;21.63;11.18;;;10.00;99.90;;;;;;5066112;28;20044;-73
2022/11/25 10:41:54;;;;;;;22.67;11.25;;;10.00;99.90;;;;;;5058826;28;20135;-73
2022/11/25 10:44:32;;;;;;;16.33;9.60;;;10.00;99.90;;;;;;5066627;28;20046;-72
2022/11/25 10:47:35;;;;;;;23.77;10.45;;;10.10;99.90;;;;;;5052930;28;20132;-73
2022/11/25 10:50:16;;;;;;;19.83;9.40;;;10.20;99.90;;;;;;5066608;28;20067;-73
2022/11/25 10:52:45;;;;;;;18.05;9.40;;;10.20;99.90;;;;;;5053458;28;20041;-72
2022/11/25 10:55:15;;;;;;;22.48;11.45;;;10.20;99.90;;;;;;5065691;28;20051;-72
2022/11/25 10:57:41;;;;;;;21.98;10.77;;;10.30;99.90;;;;;;5070840;28;20091;-72
2022/11/25 11:00:33;;;;;;;20.15;9.35;;;10.30;99.90;;;;;;5072285;28;20048;-72
2022/11/25 11:03:20;;;;;;;23.15;9.93;;;10.30;99.90;;;;;;5073583;28;20047;-73
2022/11/25 11:05:49;;;;;;;33.08;10.25;;;10.40;99.90;;;;;;5068941;28;20125;-72
2022/11/25 11:08:18;;;;;;;20.55;8.77;;;10.40;99.90;;;;;;5054855;28;20101;-72
2022/11/25 11:10:46;;;;;;;15.15;8.63;;;10.50;99.90;;;;;;5058031;28;20044;-72
2022/11/25 11:13:24;;;;;;;19.83;8.75;;;10.50;99.90;;;;;;5066241;28;20037;-72
2022/11/25 11:15:51;;;;;;;15.48;8.35;;;10.50;99.90;;;;;;5066438;28;20048;-72
2022/11/25 11:18:24;;;;;;;20.42;7.68;;;10.60;99.90;;;;;;5070877;28;20041;-72
2022/11/25 11:20:52;;;;;;;23.08;9.80;;;10.60;99.90;;;;;;5054065;28;20147;-72
2022/11/25 11:23:18;;;;;;;14.60;8.95;;;10.60;99.90;;;;;;5071910;28;20046;-72
2022/11/25 11:26:26;;;;;;;15.88;7.43;;;10.60;99.90;;;;;;5045845;28;20083;-72
2022/11/25 11:29:02;;;;;;;17.20;8.63;;;10.70;99.90;;;;;;5033863;28;20061;-72
2022/11/25 11:31:38;;;;;;;17.40;7.85;;;10.70;99.90;;;;;;5071530;28;20490;-70
2022/11/25 11:34:21;;;;;;;21.05;9.32;;;10.70;99.90;;;;;;5064409;28;20279;-71
2022/11/25 11:37:09;;;;;;;21.20;8.35;;;10.80;99.90;;;;;;5068641;28;20044;-70
2022/11/25 11:39:59;;;;;;;17.05;7.78;;;10.80;99.90;;;;;;5068673;28;20048;-70
2022/11/25 11:42:54;;;;;;;21.33;8.07;;;10.90;99.90;;;;;;5070990;28;20370;-70
2022/11/25 11:45:50;;;;;;;20.27;8.18;;;10.90;99.90;;;;;;5063241;28;20062;-70
2022/11/25 11:48:32;;;;;;;18.00;7.95;;;11.00;99.90;;;;;;5062113;28;20045;-70
2022/11/25 11:51:09;;;;;;;22.38;7.90;;;11.00;99.90;;;;;;5073138;28;20047;-70
2022/11/25 11:54:08;;;;;;;14.02;6.75;;;11.10;99.90;;;;;;5062667;28;20459;-70
2022/11/25 11:56:43;;;;;;;12.15;6.18;;;11.00;99.90;;;;;;5058738;28;20059;-69
2022/11/25 11:59:20;;;;;;;12.43;6.07;;;11.00;99.90;;;;;;5065173;28;20055;-70
2022/11/25 12:02:01;;;;;;;17.65;6.93;;;11.10;99.90;;;;;;5066314;28;20397;-70
2022/11/25 12:04:40;;;;;;;23.38;7.70;;;11.00;99.90;;;;;;5066847;28;20040;-70
2022/11/25 12:07:19;;;;;;;16.38;5.38;;;11.00;99.90;;;;;;5067175;28;20048;-70
2022/11/25 12:10:26;;;;;;;20.38;6.70;;;11.00;99.90;;;;;;5065922;28;20127;-69
2022/11/25 12:13:15;;;;;;;15.52;6.40;;;11.00;99.90;;;;;;5063803;28;20064;-69
2022/11/25 12:16:07;;;;;;;18.13;5.47;;;11.00;99.90;;;;;;5064745;28;20049;-69
2022/11/25 12:19:17;;;;;;;13.07;5.82;;;10.90;99.90;;;;;;5065551;28;20513;-70
2022/11/25 12:22:04;;;;;;;14.25;5.60;;;10.90;99.90;;;;;;5065426;28;20037;-70
2022/11/25 12:24:50;;;;;;;24.23;6.75;;;10.90;99.90;;;;;;5065226;28;20111;-69
2022/11/25 12:27:38;;;;;;;17.10;5.82;;;10.90;99.90;;;;;;5065981;28;20114;-69
2022/11/25 12:30:23;;;;;;;15.45;5.72;;;10.90;99.90;;;;;;5065446;28;20134;-69
2022/11/25 12:33:24;;;;;;;29.63;7.18;;;10.90;99.90;;;;;;5065471;28;20052;-69
2022/11/25 12:36:01;;;;;;;26.27;6.88;;;10.90;99.90;;;;;;5063707;28;20052;-69
2022/11/25 12:38:52;;;;;;;13.30;6.07;;;10.90;99.90;;;;;;5065283;28;20079;-69
2022/11/25 12:41:40;;;;;;;24.25;6.60;;;10.80;99.90;;;;;;5062127;28;20090;-70
2022/11/25 12:44:25;;;;;;;22.52;6.35;;;10.80;99.90;;;;;;5073475;28;20040;-70
2022/11/25 12:46:53;;;;;;;17.63;6.53;;;10.80;99.90;;;;;;5074642;28;20036;-69
2022/11/25 12:49:25;;;;;;;17.55;7.05;;;10.80;99.90;;;;;;5067354;28;20044;-69
2022/11/25 12:52:40;;;;;;;23.40;8.35;;;10.80;99.90;;;;;;5069902;28;20103;-69
2022/11/25 12:55:22;;;;;;;19.45;6.78;;;10.80;99.90;;;;;;5061334;28;20060;-69
2022/11/25 12:58:06;;;;;;;16.92;6.70;;;10.80;99.90;;;;;;5068995;28;20048;-69
2022/11/25 13:01:05;;;;;;;15.45;5.93;;;10.80;99.90;;;;;;5060886;28;20106;-69
2022/11/25 13:04:09;;;;;;;17.35;6.60;;;10.80;99.90;;;;;;5071357;28;20105;-69
2022/11/25 13:06:59;;;;;;;20.60;7.22;;;10.70;99.90;;;;;;5064762;28;20084;-69
2022/11/25 13:09:27;;;;;;;33.40;7.22;;;10.70;99.90;;;;;;5068526;28;20045;-70
2022/11/25 13:12:11;;;;;;;24.95;6.88;;;10.70;99.90;;;;;;5075113;28;20481;-69